sensor_id;sensor_type;location;lat;lon;timestamp;P1;durP1;ratioP1;P2;durP2;ratioP2
4732;SDS011;2380;53.668;10.008;2023-08-31T00:00:23;22.27;;;14.30;;
4732;SDS011;2380;53.668;10.008;2023-08-31T00:02:53;20.85;;;14.30;;
4732;SDS011;2380;53.668;10.008;2023-08-31T00:05:26;20.07;;;12.67;;
4732;SDS011;2380;53.668;10.008;2023-08-31T00:07:57;18.45;;;13.30;;
4732;SDS011;2380;53.668;10.008;2023-08-31T00:10:27;19.75;;;12.90;;
4732;SDS011;2380;53.668;10.008;2023-08-31T00:12:56;17.75;;;12.30;;
4732;SDS011;2380;53.668;10.008;2023-08-31T00:15:26;20.50;;;13.80;;
4732;SDS011;2380;53.668;10.008;2023-08-31T00:17:59;17.97;;;12.60;;
4732;SDS011;2380;53.668;10.008;2023-08-31T00:20:32;20.27;;;12.25;;
4732;SDS011;2380;53.668;10.008;2023-08-31T00:23:02;17.85;;;11.77;;
4732;SDS011;2380;53.668;10.008;2023-08-31T00:25:32;17.25;;;12.38;;
4732;SDS011;2380;53.668;10.008;2023-08-31T00:28:02;19.77;;;12.30;;
4732;SDS011;2380;53.668;10.008;2023-08-31T00:30:32;17.90;;;11.77;;
4732;SDS011;2380;53.668;10.008;2023-08-31T00:33:02;18.15;;;11.60;;
4732;SDS011;2380;53.668;10.008;2023-08-31T00:35:35;18.20;;;11.67;;
4732;SDS011;2380;53.668;10.008;2023-08-31T00:38:10;17.80;;;11.90;;
4732;SDS011;2380;53.668;10.008;2023-08-31T00:40:41;18.25;;;11.15;;
4732;SDS011;2380;53.668;10.008;2023-08-31T00:43:11;17.25;;;11.23;;
4732;SDS011;2380;53.668;10.008;2023-08-31T00:45:42;17.80;;;11.10;;
4732;SDS011;2380;53.668;10.008;2023-08-31T00:48:12;16.92;;;11.50;;
4732;SDS011;2380;53.668;10.008;2023-08-31T00:50:47;18.05;;;11.73;;
4732;SDS011;2380;53.668;10.008;2023-08-31T00:53:17;17.70;;;11.98;;
4732;SDS011;2380;53.668;10.008;2023-08-31T00:55:47;16.73;;;12.13;;
4732;SDS011;2380;53.668;10.008;2023-08-31T00:58:17;19.88;;;13.18;;
4732;SDS011;2380;53.668;10.008;2023-08-31T01:00:50;18.27;;;12.70;;
4732;SDS011;2380;53.668;10.008;2023-08-31T01:03:28;18.92;;;12.45;;
4732;SDS011;2380;53.668;10.008;2023-08-31T01:06:09;18.83;;;12.30;;
4732;SDS011;2380;53.668;10.008;2023-08-31T01:08:43;20.70;;;12.53;;
4732;SDS011;2380;53.668;10.008;2023-08-31T01:11:19;18.37;;;11.73;;
4732;SDS011;2380;53.668;10.008;2023-08-31T01:13:54;17.13;;;12.23;;
4732;SDS011;2380;53.668;10.008;2023-08-31T01:16:26;18.67;;;11.57;;
4732;SDS011;2380;53.668;10.008;2023-08-31T01:18:57;17.30;;;11.98;;
4732;SDS011;2380;53.668;10.008;2023-08-31T01:21:32;18.20;;;11.45;;
4732;SDS011;2380;53.668;10.008;2023-08-31T01:24:06;18.35;;;11.52;;
4732;SDS011;2380;53.668;10.008;2023-08-31T01:26:37;19.60;;;10.95;;
4732;SDS011;2380;53.668;10.008;2023-08-31T01:29:07;16.85;;;10.80;;
4732;SDS011;2380;53.668;10.008;2023-08-31T01:31:41;15.60;;;10.90;;
4732;SDS011;2380;53.668;10.008;2023-08-31T01:34:11;16.00;;;10.80;;
4732;SDS011;2380;53.668;10.008;2023-08-31T01:36:42;17.13;;;10.57;;
4732;SDS011;2380;53.668;10.008;2023-08-31T01:39:17;14.98;;;10.30;;
4732;SDS011;2380;53.668;10.008;2023-08-31T01:41:51;16.03;;;10.50;;
4732;SDS011;2380;53.668;10.008;2023-08-31T01:44:25;18.08;;;10.15;;
4732;SDS011;2380;53.668;10.008;2023-08-31T01:47:03;14.95;;;9.90;;
4732;SDS011;2380;53.668;10.008;2023-08-31T01:49:37;16.90;;;10.25;;
4732;SDS011;2380;53.668;10.008;2023-08-31T01:52:07;14.40;;;10.07;;
4732;SDS011;2380;53.668;10.008;2023-08-31T01:54:39;15.93;;;10.70;;
4732;SDS011;2380;53.668;10.008;2023-08-31T01:57:08;15.98;;;10.70;;
4732;SDS011;2380;53.668;10.008;2023-08-31T01:59:38;17.40;;;9.55;;
4732;SDS011;2380;53.668;10.008;2023-08-31T02:02:08;16.08;;;10.40;;
4732;SDS011;2380;53.668;10.008;2023-08-31T02:04:38;15.50;;;9.60;;
4732;SDS011;2380;53.668;10.008;2023-08-31T02:07:07;13.43;;;8.85;;
4732;SDS011;2380;53.668;10.008;2023-08-31T02:09:39;15.45;;;9.90;;
4732;SDS011;2380;53.668;10.008;2023-08-31T02:12:09;14.43;;;9.55;;
4732;SDS011;2380;53.668;10.008;2023-08-31T02:14:39;17.27;;;9.32;;
4732;SDS011;2380;53.668;10.008;2023-08-31T02:17:09;13.00;;;8.65;;
4732;SDS011;2380;53.668;10.008;2023-08-31T02:19:38;16.25;;;9.40;;
4732;SDS011;2380;53.668;10.008;2023-08-31T02:22:08;15.10;;;8.90;;
4732;SDS011;2380;53.668;10.008;2023-08-31T02:24:40;13.65;;;8.60;;
4732;SDS011;2380;53.668;10.008;2023-08-31T02:27:10;13.25;;;8.70;;
4732;SDS011;2380;53.668;10.008;2023-08-31T02:29:41;11.87;;;7.90;;
4732;SDS011;2380;53.668;10.008;2023-08-31T02:32:10;11.52;;;8.00;;
4732;SDS011;2380;53.668;10.008;2023-08-31T02:34:40;12.80;;;8.57;;
4732;SDS011;2380;53.668;10.008;2023-08-31T02:37:09;13.03;;;8.17;;
4732;SDS011;2380;53.668;10.008;2023-08-31T02:39:42;13.27;;;8.00;;
4732;SDS011;2380;53.668;10.008;2023-08-31T02:42:11;12.63;;;7.90;;
4732;SDS011;2380;53.668;10.008;2023-08-31T02:44:43;13.05;;;8.45;;
4732;SDS011;2380;53.668;10.008;2023-08-31T02:47:12;14.25;;;9.30;;
4732;SDS011;2380;53.668;10.008;2023-08-31T02:49:42;15.32;;;9.65;;
4732;SDS011;2380;53.668;10.008;2023-08-31T02:52:12;13.90;;;8.27;;
4732;SDS011;2380;53.668;10.008;2023-08-31T02:54:44;14.35;;;8.40;;
4732;SDS011;2380;53.668;10.008;2023-08-31T02:57:13;13.52;;;8.30;;
4732;SDS011;2380;53.668;10.008;2023-08-31T02:59:49;13.18;;;7.80;;
4732;SDS011;2380;53.668;10.008;2023-08-31T03:02:18;12.63;;;8.00;;
4732;SDS011;2380;53.668;10.008;2023-08-31T03:04:48;15.23;;;8.77;;
4732;SDS011;2380;53.668;10.008;2023-08-31T03:07:18;14.80;;;9.20;;
4732;SDS011;2380;53.668;10.008;2023-08-31T03:09:51;18.20;;;9.18;;
4732;SDS011;2380;53.668;10.008;2023-08-31T03:12:20;14.50;;;7.30;;
4732;SDS011;2380;53.668;10.008;2023-08-31T03:14:50;11.77;;;6.88;;
4732;SDS011;2380;53.668;10.008;2023-08-31T03:17:19;14.70;;;7.82;;
4732;SDS011;2380;53.668;10.008;2023-08-31T03:19:49;12.98;;;7.60;;
4732;SDS011;2380;53.668;10.008;2023-08-31T03:22:19;14.73;;;7.72;;
4732;SDS011;2380;53.668;10.008;2023-08-31T03:24:51;14.70;;;7.95;;
4732;SDS011;2380;53.668;10.008;2023-08-31T03:27:20;13.18;;;8.18;;
4732;SDS011;2380;53.668;10.008;2023-08-31T03:29:50;13.02;;;7.18;;
4732;SDS011;2380;53.668;10.008;2023-08-31T03:32:19;12.20;;;7.07;;
4732;SDS011;2380;53.668;10.008;2023-08-31T03:34:49;13.63;;;7.45;;
4732;SDS011;2380;53.668;10.008;2023-08-31T03:37:19;11.95;;;7.38;;
4732;SDS011;2380;53.668;10.008;2023-08-31T03:39:51;13.73;;;7.07;;
4732;SDS011;2380;53.668;10.008;2023-08-31T03:42:20;10.52;;;6.90;;
4732;SDS011;2380;53.668;10.008;2023-08-31T03:44:50;14.40;;;7.00;;
4732;SDS011;2380;53.668;10.008;2023-08-31T03:47:19;13.05;;;6.82;;
4732;SDS011;2380;53.668;10.008;2023-08-31T03:49:49;13.25;;;7.80;;
4732;SDS011;2380;53.668;10.008;2023-08-31T03:52:19;12.48;;;6.20;;
4732;SDS011;2380;53.668;10.008;2023-08-31T03:54:52;13.40;;;6.93;;
4732;SDS011;2380;53.668;10.008;2023-08-31T03:57:21;12.88;;;6.55;;
4732;SDS011;2380;53.668;10.008;2023-08-31T03:59:51;11.20;;;6.20;;
4732;SDS011;2380;53.668;10.008;2023-08-31T04:02:20;12.77;;;8.00;;
4732;SDS011;2380;53.668;10.008;2023-08-31T04:04:50;12.40;;;7.45;;
4732;SDS011;2380;53.668;10.008;2023-08-31T04:07:20;10.97;;;6.13;;
4732;SDS011;2380;53.668;10.008;2023-08-31T04:09:52;9.43;;;5.40;;
4732;SDS011;2380;53.668;10.008;2023-08-31T04:12:22;11.95;;;5.20;;
4732;SDS011;2380;53.668;10.008;2023-08-31T04:14:51;11.00;;;5.97;;
4732;SDS011;2380;53.668;10.008;2023-08-31T04:17:21;12.27;;;6.60;;
4732;SDS011;2380;53.668;10.008;2023-08-31T04:19:51;8.70;;;4.90;;
4732;SDS011;2380;53.668;10.008;2023-08-31T04:22:21;13.80;;;5.88;;
4732;SDS011;2380;53.668;10.008;2023-08-31T04:24:53;8.82;;;4.78;;
4732;SDS011;2380;53.668;10.008;2023-08-31T04:27:22;9.13;;;4.72;;
4732;SDS011;2380;53.668;10.008;2023-08-31T04:29:53;11.85;;;5.20;;
4732;SDS011;2380;53.668;10.008;2023-08-31T04:32:22;9.23;;;5.00;;
4732;SDS011;2380;53.668;10.008;2023-08-31T04:34:52;9.02;;;5.07;;
4732;SDS011;2380;53.668;10.008;2023-08-31T04:37:23;11.05;;;5.10;;
4732;SDS011;2380;53.668;10.008;2023-08-31T04:39:55;7.03;;;4.10;;
4732;SDS011;2380;53.668;10.008;2023-08-31T04:42:25;7.90;;;4.50;;
4732;SDS011;2380;53.668;10.008;2023-08-31T04:44:54;9.23;;;4.35;;
4732;SDS011;2380;53.668;10.008;2023-08-31T04:47:24;8.63;;;4.18;;
4732;SDS011;2380;53.668;10.008;2023-08-31T04:49:53;10.15;;;4.25;;
4732;SDS011;2380;53.668;10.008;2023-08-31T04:52:25;14.00;;;4.65;;
4732;SDS011;2380;53.668;10.008;2023-08-31T04:54:57;9.00;;;3.95;;
4732;SDS011;2380;53.668;10.008;2023-08-31T04:57:27;8.25;;;4.50;;
4732;SDS011;2380;53.668;10.008;2023-08-31T04:59:56;7.53;;;4.20;;
4732;SDS011;2380;53.668;10.008;2023-08-31T05:02:27;10.73;;;4.40;;
4732;SDS011;2380;53.668;10.008;2023-08-31T05:04:57;7.30;;;4.13;;
4732;SDS011;2380;53.668;10.008;2023-08-31T05:07:26;8.75;;;4.20;;
4732;SDS011;2380;53.668;10.008;2023-08-31T05:09:58;8.15;;;4.15;;
4732;SDS011;2380;53.668;10.008;2023-08-31T05:12:28;7.80;;;4.15;;
4732;SDS011;2380;53.668;10.008;2023-08-31T05:14:58;8.70;;;4.10;;
4732;SDS011;2380;53.668;10.008;2023-08-31T05:17:27;9.13;;;4.45;;
4732;SDS011;2380;53.668;10.008;2023-08-31T05:19:57;7.47;;;4.50;;
4732;SDS011;2380;53.668;10.008;2023-08-31T05:22:27;11.88;;;4.55;;
4732;SDS011;2380;53.668;10.008;2023-08-31T05:24:59;10.05;;;4.70;;
4732;SDS011;2380;53.668;10.008;2023-08-31T05:27:29;9.85;;;4.93;;
4732;SDS011;2380;53.668;10.008;2023-08-31T05:29:58;9.55;;;4.82;;
4732;SDS011;2380;53.668;10.008;2023-08-31T05:32:28;10.32;;;5.40;;
4732;SDS011;2380;53.668;10.008;2023-08-31T05:34:58;10.60;;;5.10;;
4732;SDS011;2380;53.668;10.008;2023-08-31T05:37:31;9.68;;;4.88;;
4732;SDS011;2380;53.668;10.008;2023-08-31T05:40:05;10.48;;;5.78;;
4732;SDS011;2380;53.668;10.008;2023-08-31T05:42:37;10.83;;;5.80;;
4732;SDS011;2380;53.668;10.008;2023-08-31T05:45:07;10.20;;;5.85;;
4732;SDS011;2380;53.668;10.008;2023-08-31T05:47:38;11.50;;;5.63;;
4732;SDS011;2380;53.668;10.008;2023-08-31T05:50:09;8.47;;;5.40;;
4732;SDS011;2380;53.668;10.008;2023-08-31T05:52:39;10.30;;;5.60;;
4732;SDS011;2380;53.668;10.008;2023-08-31T05:55:13;10.27;;;5.80;;
4732;SDS011;2380;53.668;10.008;2023-08-31T05:57:43;10.02;;;5.40;;
4732;SDS011;2380;53.668;10.008;2023-08-31T06:00:13;12.52;;;5.70;;
4732;SDS011;2380;53.668;10.008;2023-08-31T06:02:42;9.13;;;4.90;;
4732;SDS011;2380;53.668;10.008;2023-08-31T06:05:12;11.43;;;5.20;;
4732;SDS011;2380;53.668;10.008;2023-08-31T06:07:43;11.85;;;5.90;;
4732;SDS011;2380;53.668;10.008;2023-08-31T06:10:15;11.32;;;5.68;;
4732;SDS011;2380;53.668;10.008;2023-08-31T06:12:45;9.00;;;4.93;;
4732;SDS011;2380;53.668;10.008;2023-08-31T06:15:16;8.45;;;4.80;;
4732;SDS011;2380;53.668;10.008;2023-08-31T06:17:46;8.90;;;4.72;;
4732;SDS011;2380;53.668;10.008;2023-08-31T06:20:16;11.40;;;4.90;;
4732;SDS011;2380;53.668;10.008;2023-08-31T06:22:45;11.67;;;4.90;;
4732;SDS011;2380;53.668;10.008;2023-08-31T06:25:18;7.68;;;4.18;;
4732;SDS011;2380;53.668;10.008;2023-08-31T06:27:51;8.38;;;4.10;;
4732;SDS011;2380;53.668;10.008;2023-08-31T06:30:20;10.77;;;4.35;;
4732;SDS011;2380;53.668;10.008;2023-08-31T06:32:50;8.38;;;4.30;;
4732;SDS011;2380;53.668;10.008;2023-08-31T06:35:19;6.85;;;3.60;;
4732;SDS011;2380;53.668;10.008;2023-08-31T06:37:50;7.40;;;4.00;;
4732;SDS011;2380;53.668;10.008;2023-08-31T06:40:25;8.90;;;3.40;;
4732;SDS011;2380;53.668;10.008;2023-08-31T06:42:54;6.60;;;3.72;;
4732;SDS011;2380;53.668;10.008;2023-08-31T06:45:24;9.02;;;3.33;;
4732;SDS011;2380;53.668;10.008;2023-08-31T06:47:53;7.82;;;3.97;;
4732;SDS011;2380;53.668;10.008;2023-08-31T06:50:23;6.70;;;3.60;;
4732;SDS011;2380;53.668;10.008;2023-08-31T06:52:53;9.98;;;4.18;;
4732;SDS011;2380;53.668;10.008;2023-08-31T06:55:25;9.35;;;3.70;;
4732;SDS011;2380;53.668;10.008;2023-08-31T06:57:54;6.75;;;3.60;;
4732;SDS011;2380;53.668;10.008;2023-08-31T07:00:24;6.78;;;3.30;;
4732;SDS011;2380;53.668;10.008;2023-08-31T07:02:54;8.80;;;3.45;;
4732;SDS011;2380;53.668;10.008;2023-08-31T07:05:24;5.90;;;3.30;;
4732;SDS011;2380;53.668;10.008;2023-08-31T07:07:56;7.07;;;3.50;;
4732;SDS011;2380;53.668;10.008;2023-08-31T07:10:28;6.93;;;3.60;;
4732;SDS011;2380;53.668;10.008;2023-08-31T07:12:58;6.38;;;3.60;;
4732;SDS011;2380;53.668;10.008;2023-08-31T07:15:27;8.32;;;3.50;;
4732;SDS011;2380;53.668;10.008;2023-08-31T07:17:58;8.93;;;3.67;;
4732;SDS011;2380;53.668;10.008;2023-08-31T07:20:27;10.60;;;3.58;;
4732;SDS011;2380;53.668;10.008;2023-08-31T07:22:57;8.55;;;3.10;;
4732;SDS011;2380;53.668;10.008;2023-08-31T07:25:29;7.83;;;3.20;;
4732;SDS011;2380;53.668;10.008;2023-08-31T07:27:59;5.60;;;2.60;;
4732;SDS011;2380;53.668;10.008;2023-08-31T07:30:29;9.05;;;3.00;;
4732;SDS011;2380;53.668;10.008;2023-08-31T07:32:59;6.70;;;2.50;;
4732;SDS011;2380;53.668;10.008;2023-08-31T07:35:42;5.40;;;2.10;;
4732;SDS011;2380;53.668;10.008;2023-08-31T07:38:12;5.75;;;2.30;;
4732;SDS011;2380;53.668;10.008;2023-08-31T07:40:44;5.38;;;2.20;;
4732;SDS011;2380;53.668;10.008;2023-08-31T07:43:14;5.15;;;2.00;;
4732;SDS011;2380;53.668;10.008;2023-08-31T07:45:44;5.47;;;1.60;;
4732;SDS011;2380;53.668;10.008;2023-08-31T07:48:14;4.30;;;1.63;;
4732;SDS011;2380;53.668;10.008;2023-08-31T07:50:43;8.00;;;1.80;;
4732;SDS011;2380;53.668;10.008;2023-08-31T07:53:13;4.68;;;1.65;;
4732;SDS011;2380;53.668;10.008;2023-08-31T07:55:53;6.30;;;1.40;;
4732;SDS011;2380;53.668;10.008;2023-08-31T07:58:23;3.70;;;1.70;;
4732;SDS011;2380;53.668;10.008;2023-08-31T08:00:53;5.20;;;1.88;;
4732;SDS011;2380;53.668;10.008;2023-08-31T08:03:24;4.50;;;1.90;;
4732;SDS011;2380;53.668;10.008;2023-08-31T08:05:55;4.70;;;1.52;;
4732;SDS011;2380;53.668;10.008;2023-08-31T08:08:25;7.57;;;2.80;;
4732;SDS011;2380;53.668;10.008;2023-08-31T08:10:57;5.10;;;2.30;;
4732;SDS011;2380;53.668;10.008;2023-08-31T08:13:29;5.03;;;1.63;;
4732;SDS011;2380;53.668;10.008;2023-08-31T08:15:58;6.83;;;2.10;;
4732;SDS011;2380;53.668;10.008;2023-08-31T08:18:28;5.78;;;1.70;;
4732;SDS011;2380;53.668;10.008;2023-08-31T08:20:59;5.63;;;2.63;;
4732;SDS011;2380;53.668;10.008;2023-08-31T08:23:30;5.32;;;1.60;;
4732;SDS011;2380;53.668;10.008;2023-08-31T08:26:02;5.80;;;2.00;;
4732;SDS011;2380;53.668;10.008;2023-08-31T08:28:31;5.18;;;2.10;;
4732;SDS011;2380;53.668;10.008;2023-08-31T08:31:02;7.95;;;2.10;;
4732;SDS011;2380;53.668;10.008;2023-08-31T08:33:31;4.10;;;2.00;;
4732;SDS011;2380;53.668;10.008;2023-08-31T08:36:14;6.35;;;2.20;;
4732;SDS011;2380;53.668;10.008;2023-08-31T08:38:44;5.90;;;1.90;;
4732;SDS011;2380;53.668;10.008;2023-08-31T08:41:16;5.60;;;2.55;;
4732;SDS011;2380;53.668;10.008;2023-08-31T08:43:47;5.63;;;2.40;;
4732;SDS011;2380;53.668;10.008;2023-08-31T08:46:17;5.72;;;2.42;;
4732;SDS011;2380;53.668;10.008;2023-08-31T08:48:47;6.25;;;2.60;;
4732;SDS011;2380;53.668;10.008;2023-08-31T08:51:17;5.65;;;2.78;;
4732;SDS011;2380;53.668;10.008;2023-08-31T08:53:46;5.40;;;2.60;;
4732;SDS011;2380;53.668;10.008;2023-08-31T08:56:19;8.13;;;3.20;;
4732;SDS011;2380;53.668;10.008;2023-08-31T08:58:49;7.07;;;2.65;;
4732;SDS011;2380;53.668;10.008;2023-08-31T09:01:18;5.30;;;2.70;;
4732;SDS011;2380;53.668;10.008;2023-08-31T09:03:49;5.70;;;2.80;;
4732;SDS011;2380;53.668;10.008;2023-08-31T09:06:20;6.68;;;2.75;;
4732;SDS011;2380;53.668;10.008;2023-08-31T09:08:53;6.40;;;2.97;;
4732;SDS011;2380;53.668;10.008;2023-08-31T09:11:26;5.50;;;2.70;;
4732;SDS011;2380;53.668;10.008;2023-08-31T09:13:56;5.60;;;2.90;;
4732;SDS011;2380;53.668;10.008;2023-08-31T09:16:26;10.30;;;3.60;;
4732;SDS011;2380;53.668;10.008;2023-08-31T09:18:57;10.30;;;3.00;;
4732;SDS011;2380;53.668;10.008;2023-08-31T09:21:34;8.50;;;3.70;;
4732;SDS011;2380;53.668;10.008;2023-08-31T09:24:04;4.72;;;2.58;;
4732;SDS011;2380;53.668;10.008;2023-08-31T09:26:41;6.67;;;2.97;;
4732;SDS011;2380;53.668;10.008;2023-08-31T09:29:13;7.30;;;2.67;;
4732;SDS011;2380;53.668;10.008;2023-08-31T09:31:42;5.50;;;2.53;;
4732;SDS011;2380;53.668;10.008;2023-08-31T09:34:13;37.40;;;18.30;;
4732;SDS011;2380;53.668;10.008;2023-08-31T09:36:43;25.75;;;12.52;;
4732;SDS011;2380;53.668;10.008;2023-08-31T09:39:14;26.45;;;11.98;;
4732;SDS011;2380;53.668;10.008;2023-08-31T09:41:55;22.15;;;10.23;;
4732;SDS011;2380;53.668;10.008;2023-08-31T09:44:29;11.48;;;4.43;;
4732;SDS011;2380;53.668;10.008;2023-08-31T09:46:59;13.50;;;6.33;;
4732;SDS011;2380;53.668;10.008;2023-08-31T09:49:31;8.80;;;3.90;;
4732;SDS011;2380;53.668;10.008;2023-08-31T09:52:02;13.30;;;6.20;;
4732;SDS011;2380;53.668;10.008;2023-08-31T09:54:34;9.32;;;3.90;;
4732;SDS011;2380;53.668;10.008;2023-08-31T09:57:07;16.83;;;8.70;;
4732;SDS011;2380;53.668;10.008;2023-08-31T09:59:36;10.32;;;5.72;;
4732;SDS011;2380;53.668;10.008;2023-08-31T10:02:07;10.77;;;4.60;;
4732;SDS011;2380;53.668;10.008;2023-08-31T10:04:40;7.80;;;3.60;;
4732;SDS011;2380;53.668;10.008;2023-08-31T10:07:10;7.83;;;3.27;;
4732;SDS011;2380;53.668;10.008;2023-08-31T10:09:40;7.90;;;3.78;;
4732;SDS011;2380;53.668;10.008;2023-08-31T10:12:13;5.43;;;2.53;;
4732;SDS011;2380;53.668;10.008;2023-08-31T10:14:43;7.28;;;2.70;;
4732;SDS011;2380;53.668;10.008;2023-08-31T10:17:13;30.23;;;16.60;;
4732;SDS011;2380;53.668;10.008;2023-08-31T10:19:42;25.92;;;13.02;;
4732;SDS011;2380;53.668;10.008;2023-08-31T10:22:12;8.05;;;2.95;;
4732;SDS011;2380;53.668;10.008;2023-08-31T10:27:30;11.60;;;6.00;;
4732;SDS011;2380;53.668;10.008;2023-08-31T10:30:15;9.02;;;4.88;;
4732;SDS011;2380;53.668;10.008;2023-08-31T10:33:01;14.63;;;7.63;;
4732;SDS011;2380;53.668;10.008;2023-08-31T10:35:47;36.75;;;19.73;;
4732;SDS011;2380;53.668;10.008;2023-08-31T10:38:23;16.20;;;8.52;;
4732;SDS011;2380;53.668;10.008;2023-08-31T10:41:00;10.85;;;5.57;;
4732;SDS011;2380;53.668;10.008;2023-08-31T10:43:46;20.23;;;10.27;;
4732;SDS011;2380;53.668;10.008;2023-08-31T10:46:18;13.90;;;7.43;;
4732;SDS011;2380;53.668;10.008;2023-08-31T10:48:59;7.78;;;3.20;;
4732;SDS011;2380;53.668;10.008;2023-08-31T10:51:30;12.40;;;6.15;;
4732;SDS011;2380;53.668;10.008;2023-08-31T10:54:07;42.13;;;22.27;;
4732;SDS011;2380;53.668;10.008;2023-08-31T11:02:30;15.67;;;8.03;;
4732;SDS011;2380;53.668;10.008;2023-08-31T11:05:06;12.98;;;7.30;;
4732;SDS011;2380;53.668;10.008;2023-08-31T11:07:37;15.35;;;8.48;;
4732;SDS011;2380;53.668;10.008;2023-08-31T11:10:12;13.73;;;5.60;;
4732;SDS011;2380;53.668;10.008;2023-08-31T11:12:43;16.10;;;7.80;;
4732;SDS011;2380;53.668;10.008;2023-08-31T11:15:17;35.08;;;15.48;;
4732;SDS011;2380;53.668;10.008;2023-08-31T11:17:48;32.70;;;15.32;;
4732;SDS011;2380;53.668;10.008;2023-08-31T11:20:19;31.20;;;16.55;;
4732;SDS011;2380;53.668;10.008;2023-08-31T11:22:50;13.73;;;6.53;;
4732;SDS011;2380;53.668;10.008;2023-08-31T11:25:20;12.37;;;6.90;;
4732;SDS011;2380;53.668;10.008;2023-08-31T11:27:54;11.43;;;5.13;;
4732;SDS011;2380;53.668;10.008;2023-08-31T11:30:28;6.78;;;2.90;;
4732;SDS011;2380;53.668;10.008;2023-08-31T11:33:01;16.15;;;8.35;;
4732;SDS011;2380;53.668;10.008;2023-08-31T11:35:32;14.98;;;7.47;;
4732;SDS011;2380;53.668;10.008;2023-08-31T11:38:04;12.25;;;5.78;;
4732;SDS011;2380;53.668;10.008;2023-08-31T11:40:33;8.82;;;4.13;;
4732;SDS011;2380;53.668;10.008;2023-08-31T11:43:04;17.33;;;8.70;;
4732;SDS011;2380;53.668;10.008;2023-08-31T11:45:38;16.92;;;7.55;;
4732;SDS011;2380;53.668;10.008;2023-08-31T11:48:07;12.73;;;6.30;;
4732;SDS011;2380;53.668;10.008;2023-08-31T11:50:37;13.10;;;6.75;;
4732;SDS011;2380;53.668;10.008;2023-08-31T11:53:08;14.52;;;7.13;;
4732;SDS011;2380;53.668;10.008;2023-08-31T11:55:48;10.48;;;5.03;;
4732;SDS011;2380;53.668;10.008;2023-08-31T11:58:20;12.00;;;6.05;;
4732;SDS011;2380;53.668;10.008;2023-08-31T12:00:57;10.27;;;5.37;;
4732;SDS011;2380;53.668;10.008;2023-08-31T12:03:27;4.93;;;1.60;;
4732;SDS011;2380;53.668;10.008;2023-08-31T12:06:15;11.43;;;5.50;;
4732;SDS011;2380;53.668;10.008;2023-08-31T12:11:13;22.17;;;11.10;;
4732;SDS011;2380;53.668;10.008;2023-08-31T12:13:42;19.50;;;9.73;;
4732;SDS011;2380;53.668;10.008;2023-08-31T12:16:15;8.60;;;4.03;;
4732;SDS011;2380;53.668;10.008;2023-08-31T12:18:44;10.65;;;4.35;;
4732;SDS011;2380;53.668;10.008;2023-08-31T12:21:14;9.77;;;4.75;;
4732;SDS011;2380;53.668;10.008;2023-08-31T12:23:44;17.05;;;7.25;;
4732;SDS011;2380;53.668;10.008;2023-08-31T12:26:13;9.55;;;4.32;;
4732;SDS011;2380;53.668;10.008;2023-08-31T12:28:43;5.63;;;2.03;;
4732;SDS011;2380;53.668;10.008;2023-08-31T12:31:15;9.00;;;4.03;;
4732;SDS011;2380;53.668;10.008;2023-08-31T12:33:45;8.57;;;2.97;;
4732;SDS011;2380;53.668;10.008;2023-08-31T12:36:15;9.45;;;3.08;;
4732;SDS011;2380;53.668;10.008;2023-08-31T12:38:45;9.10;;;3.53;;
4732;SDS011;2380;53.668;10.008;2023-08-31T12:41:15;9.75;;;4.72;;
4732;SDS011;2380;53.668;10.008;2023-08-31T12:43:49;7.53;;;3.45;;
4732;SDS011;2380;53.668;10.008;2023-08-31T12:46:22;4.37;;;1.70;;
4732;SDS011;2380;53.668;10.008;2023-08-31T12:48:51;8.30;;;2.80;;
4732;SDS011;2380;53.668;10.008;2023-08-31T12:51:21;6.93;;;3.13;;
4732;SDS011;2380;53.668;10.008;2023-08-31T12:53:51;6.43;;;2.90;;
4732;SDS011;2380;53.668;10.008;2023-08-31T12:56:20;7.95;;;2.70;;
4732;SDS011;2380;53.668;10.008;2023-08-31T12:58:51;5.07;;;1.87;;
4732;SDS011;2380;53.668;10.008;2023-08-31T13:01:24;5.47;;;2.28;;
4732;SDS011;2380;53.668;10.008;2023-08-31T13:03:53;3.60;;;1.30;;
4732;SDS011;2380;53.668;10.008;2023-08-31T13:06:23;4.20;;;1.30;;
4732;SDS011;2380;53.668;10.008;2023-08-31T13:08:53;6.50;;;2.70;;
4732;SDS011;2380;53.668;10.008;2023-08-31T13:11:22;3.80;;;1.40;;
4732;SDS011;2380;53.668;10.008;2023-08-31T13:13:52;3.65;;;1.20;;
4732;SDS011;2380;53.668;10.008;2023-08-31T13:16:24;3.20;;;1.10;;
4732;SDS011;2380;53.668;10.008;2023-08-31T13:18:55;6.43;;;2.35;;
4732;SDS011;2380;53.668;10.008;2023-08-31T13:21:24;6.50;;;2.80;;
4732;SDS011;2380;53.668;10.008;2023-08-31T13:23:54;6.63;;;2.30;;
4732;SDS011;2380;53.668;10.008;2023-08-31T13:26:24;5.50;;;2.45;;
4732;SDS011;2380;53.668;10.008;2023-08-31T13:28:53;5.57;;;2.45;;
4732;SDS011;2380;53.668;10.008;2023-08-31T13:31:26;5.15;;;1.50;;
4732;SDS011;2380;53.668;10.008;2023-08-31T13:33:56;3.88;;;1.50;;
4732;SDS011;2380;53.668;10.008;2023-08-31T13:36:26;13.85;;;7.38;;
4732;SDS011;2380;53.668;10.008;2023-08-31T13:38:55;18.08;;;9.60;;
4732;SDS011;2380;53.668;10.008;2023-08-31T13:41:25;33.25;;;18.00;;
4732;SDS011;2380;53.668;10.008;2023-08-31T13:43:54;17.55;;;9.20;;
4732;SDS011;2380;53.668;10.008;2023-08-31T13:46:26;9.95;;;4.50;;
4732;SDS011;2380;53.668;10.008;2023-08-31T13:48:58;5.77;;;2.80;;
4732;SDS011;2380;53.668;10.008;2023-08-31T13:51:28;19.97;;;10.60;;
4732;SDS011;2380;53.668;10.008;2023-08-31T13:53:57;3.00;;;0.88;;
4732;SDS011;2380;53.668;10.008;2023-08-31T13:56:27;10.23;;;4.75;;
4732;SDS011;2380;53.668;10.008;2023-08-31T13:58:57;5.65;;;2.40;;
4732;SDS011;2380;53.668;10.008;2023-08-31T14:01:30;10.30;;;4.50;;
4732;SDS011;2380;53.668;10.008;2023-08-31T14:04:00;7.80;;;3.90;;
4732;SDS011;2380;53.668;10.008;2023-08-31T14:06:30;16.13;;;8.73;;
4732;SDS011;2380;53.668;10.008;2023-08-31T14:09:00;12.85;;;6.70;;
4732;SDS011;2380;53.668;10.008;2023-08-31T14:11:31;6.23;;;2.67;;
4732;SDS011;2380;53.668;10.008;2023-08-31T14:14:02;12.00;;;5.82;;
4732;SDS011;2380;53.668;10.008;2023-08-31T14:16:39;9.43;;;4.28;;
4732;SDS011;2380;53.668;10.008;2023-08-31T14:19:09;10.18;;;4.95;;
4732;SDS011;2380;53.668;10.008;2023-08-31T14:21:38;7.90;;;3.50;;
4732;SDS011;2380;53.668;10.008;2023-08-31T14:24:08;12.90;;;6.20;;
4732;SDS011;2380;53.668;10.008;2023-08-31T14:26:38;4.25;;;1.35;;
4732;SDS011;2380;53.668;10.008;2023-08-31T14:29:07;10.85;;;4.60;;
4732;SDS011;2380;53.668;10.008;2023-08-31T14:31:39;6.63;;;3.00;;
4732;SDS011;2380;53.668;10.008;2023-08-31T14:34:11;6.28;;;2.65;;
4732;SDS011;2380;53.668;10.008;2023-08-31T14:36:40;13.93;;;6.78;;
4732;SDS011;2380;53.668;10.008;2023-08-31T14:39:10;10.68;;;4.75;;
4732;SDS011;2380;53.668;10.008;2023-08-31T14:41:41;24.63;;;12.55;;
4732;SDS011;2380;53.668;10.008;2023-08-31T14:44:10;13.48;;;6.10;;
4732;SDS011;2380;53.668;10.008;2023-08-31T14:46:43;4.75;;;1.20;;
4732;SDS011;2380;53.668;10.008;2023-08-31T14:49:12;3.80;;;1.30;;
4732;SDS011;2380;53.668;10.008;2023-08-31T14:51:42;3.60;;;1.17;;
4732;SDS011;2380;53.668;10.008;2023-08-31T14:54:12;4.25;;;0.90;;
4732;SDS011;2380;53.668;10.008;2023-08-31T14:56:42;3.55;;;1.10;;
4732;SDS011;2380;53.668;10.008;2023-08-31T14:59:11;3.53;;;0.87;;
4732;SDS011;2380;53.668;10.008;2023-08-31T15:01:44;3.38;;;1.10;;
4732;SDS011;2380;53.668;10.008;2023-08-31T15:04:13;5.10;;;1.10;;
4732;SDS011;2380;53.668;10.008;2023-08-31T15:06:43;4.22;;;1.10;;
4732;SDS011;2380;53.668;10.008;2023-08-31T15:09:12;3.00;;;0.80;;
4732;SDS011;2380;53.668;10.008;2023-08-31T15:11:42;3.90;;;0.80;;
4732;SDS011;2380;53.668;10.008;2023-08-31T15:14:13;3.70;;;0.90;;
4732;SDS011;2380;53.668;10.008;2023-08-31T15:16:46;5.93;;;1.50;;
4732;SDS011;2380;53.668;10.008;2023-08-31T15:19:15;3.28;;;0.85;;
4732;SDS011;2380;53.668;10.008;2023-08-31T15:21:45;4.82;;;1.00;;
4732;SDS011;2380;53.668;10.008;2023-08-31T15:24:14;3.80;;;0.93;;
4732;SDS011;2380;53.668;10.008;2023-08-31T15:26:44;6.00;;;2.38;;